Little Suamico, Wisconsin
Current Conditions -  °F | °C
As of 12:35 PM on Sunday 23 Nov 2014 (Local Time) from KOCQ Reporting Station
Overcast Overcast  
Wind Chill: 42°   Ceiling: 300
Heat Index: 46°   Visibility: 1.7mi
Dew Point: 46°   Wind: 7mph
Humidity: 100%   Direction: 190°S
Pressure: 29.54"   Gusts: NA
Location:  44.72°N, 88.01°W
Report Text: KOCQ 231835Z AUTO 19006KT 1 3/4SM OVC003 08/08 A2954 RMK AO1 T00770077
Loading
Personal Weather Stations






























Interactive Weather Map New forecast layout! Learn more

10-Day Weather Forecast

Advertisements
Track Severe Weather on mobile